Antananarivo, Madagascar
Current Conditions -  °F | °C
As of 4:00 AM on Saturday 29 Nov 2014 (Local Time) from FMMI Reporting Station
Broken Clouds Broken Clouds  
Wind Chill: 64°   Ceiling: 2000
Heat Index: 64°   Visibility: 6mi
Dew Point: 64°   Wind: 6mph
Humidity: 100%   Direction: 90°E
Pressure: 30.06"   Gusts: NA
Location:  18.89°S, 47.51°E
Report Text: FMMI 290100Z 09005KT 9999 FEW017 BKN020 18/18 Q1018 NOSIG
Loading
Personal Weather Stations






























Interactive Weather Map New forecast layout! Learn more

10-Day Weather Forecast

Advertisements
Track Severe Weather on mobile